Terminal Aerodrome Forecast
Issued by NWS

Home | Current Version | Previous Version | Text Only | Print | Product List | Glossary On
Versions: 1 2 3 4 5 6 7 8 9 10 11 12 13 14 15 16 17 18 19 20 21 22 23 24 25
000
FTUS44 KLIX 280500
TAFHUM
TAF
KHUM 280520Z 2806/2906 06005KT P6SM SCT100
     FM280800 00000KT P6SM SCT250
      TEMPO 2809/2812 5SM BR
     FM281400 08004KT P6SM SCT035
     FM281700 10008KT P6SM VCTS BKN040CB
     FM290100 11005KT P6SM SCT045 SCT100=

USA.gov is the U.S. government's official web portal to all federal, state and local government web resources and services.